Terminal Aerodrome Forecast
Issued by NWS

Home | Current Version | Previous Version | Text Only | Print | Product List | Glossary On
Versions: 1 2 3 4 5 6 7 8 9 10 11 12
000
FTUS44 KTSA 202300
TAFXNA
TAF
KXNA 202325Z 2100/2124 17005KT P6SM SCT050 BKN120
      TEMPO 2103/2107 5SM -SHRA BKN040
     FM211000 17005KT P6SM BKN020
     FM211300 20007KT P6SM BKN015 PROB30 2113/2117 -SHRA
     FM211900 25007KT P6SM BKN025 PROB30 2119/2124 5SM -TSRA
      BKN015CB=

USA.gov is the U.S. government's official web portal to all federal, state and local government web resources and services.